Latest Weather Observations for Warra

IDT60801

Issued at 10:21 pm EDT Thursday 21 October 2021 (issued every 10 minutes, with the page automatically refreshed every 10 minutes)

About weather observations | Map of weather stations | Latest weather observations for TAS | Other Formats
Station Details ID: 097024 Name: WARRA Lat: -43.06 Lon: 146.70 Height: 495.0 m
Data from the previous 72 hours. | See also: Recent months at Warra
Date/Time
EDT
Temp
°C
App
Temp
°C
Dew
Point
°C
Rel
Hum
%
Delta-T
°C
Wind Press
QNH
hPa
Press
MSL
hPa
Rain since
9am
mm
Dir  Spd
km/h
Gust
km/h
Spd
kts
Gust
kts
21/10:00pm 14.1 11.9 7.9 66 3.2 N 9 17 5 9 - - 0.0
21/09:30pm 14.3 12.0 7.4 63 3.5 N 9 15 5 8 - - 0.0
21/09:00pm 14.0 12.2 7.1 63 3.5 NNW 6 11 3 6 - - 0.0
21/08:30pm 15.7 12.5 7.0 56 4.4 N 13 22 7 12 - - 0.0
21/08:00pm 16.0 12.3 6.2 52 4.9 N 15 24 8 13 - - 0.0
21/07:30pm 16.5 12.5 6.6 52 5.0 NNW 17 26 9 14 - - 0.0
21/07:00pm 16.7 13.1 6.8 52 5.0 NNW 15 22 8 12 - - 0.0
21/06:30pm 17.7 15.3 6.9 49 5.5 NNW 9 19 5 10 - - 0.0
21/06:00pm 17.4 14.0 7.7 53 5.0 NNW 15 26 8 14 - - 0.0
21/05:30pm 18.4 15.7 8.9 54 5.1 N 13 24 7 13 - - 0.0
21/05:00pm 19.0 16.6 10.0 56 4.9 NNE 13 28 7 15 - - 0.0
21/04:30pm 18.9 15.6 9.7 55 5.0 N 17 30 9 16 - - 0.0
21/04:00pm 19.4 16.6 10.1 55 5.1 NNE 15 28 8 15 - - 0.0
21/03:30pm 18.4 14.5 9.5 56 4.8 NNE 20 35 11 19 - - 0.0
21/03:00pm 18.8 15.1 9.6 55 5.0 N 19 30 10 16 - - 0.0
21/02:30pm 19.1 15.6 10.1 56 4.9 NNE 19 32 10 17 - - 0.0
21/02:00pm 18.5 15.1 9.0 54 5.1 NNE 17 30 9 16 - - 0.0
21/01:30pm 18.6 15.6 9.4 55 5.0 NNE 15 28 8 15 - - 0.0
21/01:00pm 18.0 13.9 8.8 55 4.9 NNE 20 33 11 18 - - 0.0
21/12:30pm 17.4 14.0 9.1 58 4.4 N 17 26 9 14 - - 0.0
21/12:00pm 16.5 12.2 8.0 57 4.4 NNE 20 33 11 18 - - 0.0
21/11:30am 16.7 13.6 8.9 60 4.1 NNE 15 24 8 13 - - 0.0
21/11:00am 15.9 12.4 7.4 57 4.3 NE 15 20 8 11 - - 0.0
21/10:30am 15.7 13.0 7.5 58 4.2 NE 11 19 6 10 - - 0.0
21/10:00am 14.6 11.7 6.7 59 3.9 NE 11 19 6 10 - - 0.0
21/09:30am 13.2 10.2 6.1 62 3.5 NNE 11 15 6 8 - - 0.0
21/09:00am 12.5 9.9 6.1 65 3.1 N 9 15 5 8 - - 0.0
21/08:30am 11.3 8.3 6.0 70 2.5 N 11 15 6 8 - - 0.0
21/08:00am 10.0 7.6 5.2 72 2.2 NNE 7 11 4 6 - - 0.0
21/07:30am 9.3 6.8 4.7 73 2.1 N 7 9 4 5 - - 0.0
21/07:00am 7.6 4.6 4.2 79 1.5 N 9 11 5 6 - - 0.0
21/06:30am 6.8 3.8 3.9 82 1.3 N 9 15 5 8 - - 0.0
21/06:00am 6.6 3.5 3.6 81 1.3 N 9 13 5 7 - - 0.0
21/05:30am 6.7 3.6 3.7 81 1.3 NNE 9 13 5 7 - - 0.0
21/05:00am 6.7 3.6 3.5 80 1.4 NNE 9 15 5 8 - - 0.0
21/04:30am 6.8 3.7 3.4 79 1.5 N 9 15 5 8 - - 0.0
21/04:00am 6.9 3.4 3.3 78 1.6 N 11 17 6 9 - - 0.0
21/03:30am 6.9 3.4 3.3 78 1.6 N 11 19 6 10 - - 0.0
21/03:00am 6.8 4.0 2.9 76 1.7 NNE 7 15 4 8 - - 0.0
21/02:30am 7.7 3.8 3.2 73 2.0 NNE 13 26 7 14 - - 0.0
21/02:00am 7.6 2.9 3.1 73 2.0 NE 17 28 9 15 - - 0.0
21/01:30am 7.8 3.5 3.1 72 2.1 NE 15 33 8 18 - - 0.0
21/01:00am 7.6 3.3 3.5 75 1.8 NNE 15 30 8 16 - - 0.0
21/12:30am 7.8 3.2 3.7 75 1.8 NNE 17 35 9 19 - - 0.0
21/12:00am 7.5 3.7 4.1 79 1.5 NE 13 24 7 13 - - 0.0
 
Date/Time
EDT
Temp
°C
App
Temp
°C
Dew
Point
°C
Rel
Hum
%
Delta-T
°C
Wind Press
QNH
hPa
Press
MSL
hPa
Rain since
9am
mm
Dir  Spd
km/h
Gust
km/h
Spd
kts
Gust
kts
20/11:30pm 7.6 3.5 4.6 81 1.4 NNE 15 24 8 13 - - 0.0
20/11:00pm 7.9 3.5 4.7 80 1.5 NNE 17 32 9 17 - - 0.0
20/10:30pm 7.9 4.2 4.7 80 1.5 NNE 13 24 7 13 - - 0.0
20/10:00pm 7.9 3.9 4.7 80 1.5 NNE 15 22 8 12 - - 0.0
20/09:30pm 7.7 3.7 4.7 81 1.4 NE 15 20 8 11 - - 0.0
20/09:00pm 8.2 4.6 4.8 79 1.5 ENE 13 20 7 11 - - 0.0
20/08:30pm 9.0 5.4 5.0 76 1.8 NE 13 19 7 10 - - 0.0
20/08:00pm 8.6 5.7 4.8 77 1.7 E 9 17 5 9 - - 0.0
20/07:30pm 9.2 6.0 5.2 76 1.9 ESE 11 17 6 9 - - 0.0
20/07:00pm 10.5 7.0 5.3 70 2.4 E 13 20 7 11 - - 0.0
20/06:30pm 11.9 8.4 5.5 65 3.1 ENE 13 20 7 11 - - 0.0
20/06:00pm 13.0 9.4 5.2 59 3.7 NE 13 20 7 11 - - 0.0
20/05:30pm 13.4 9.9 5.3 58 3.9 ENE 13 22 7 12 - - 0.0
20/05:00pm 13.2 9.1 4.6 56 4.1 NE 15 22 8 12 - - 0.0
20/04:30pm 13.6 10.1 5.3 57 4.0 ENE 13 22 7 12 - - 0.0
20/04:00pm 13.6 10.1 5.3 57 4.0 NE 13 20 7 11 - - 0.0
20/03:30pm 12.8 8.4 5.0 59 3.7 NE 17 28 9 15 - - 0.0
20/03:00pm 12.3 8.2 4.5 59 3.7 NE 15 26 8 14 - - 0.0
20/02:30pm 12.4 8.3 4.4 58 3.7 NE 15 26 8 14 - - 0.0
20/02:00pm 12.1 7.6 4.3 59 3.6 NNE 17 24 9 13 - - 0.0
20/01:30pm 11.7 7.1 3.5 57 3.7 NNE 17 30 9 16 - - 0.0
20/01:00pm 11.9 7.6 3.2 55 3.9 NNE 15 26 8 14 - - 0.0
20/12:30pm 11.8 7.2 3.8 58 3.7 NNE 17 30 9 16 - - 0.0
20/12:00pm 11.4 7.1 3.2 57 3.7 N 15 26 8 14 - - 0.0
20/11:30am 10.2 6.2 2.8 60 3.3 NE 13 20 7 11 - - 0.0
20/11:00am 10.0 6.0 2.8 61 3.2 NE 13 19 7 10 - - 0.0
20/10:30am 9.0 5.0 2.6 64 2.8 NE 13 22 7 12 - - 0.0
20/10:00am 8.5 4.5 2.9 68 2.4 NE 13 19 7 10 - - 0.0
20/09:30am 7.7 4.8 2.4 69 2.3 NNE 7 13 4 7 - - 0.0
20/09:00am 6.6 3.1 1.1 68 2.3 NNE 9 15 5 8 - - 0.2
20/08:30am 5.7 1.8 1.1 72 1.9 NNE 11 15 6 8 - - 0.2
20/08:00am 5.4 1.9 1.5 76 1.6 NNE 9 15 5 8 - - 0.2
20/07:30am 4.0 0.4 0.9 80 1.2 NNE 9 11 5 6 - - 0.2
20/07:00am 3.7 0.6 0.4 79 1.3 N 6 11 3 6 - - 0.2
20/06:30am 3.0 -0.7 0.2 82 1.1 N 9 13 5 7 - - 0.2
20/06:00am 2.6 -0.7 0.2 84 0.9 N 7 9 4 5 - - 0.2
20/05:30am 2.7 -0.6 0.3 84 0.9 N 7 9 4 5 - - 0.2
20/05:00am 2.5 0.1 -0.3 82 1.1 NNE 2 7 1 4 - - 0.2
20/04:30am 2.2 -1.2 -0.4 83 1.0 NW 7 9 4 5 - - 0.2
20/04:00am 1.6 -1.8 -0.5 86 0.8 N 7 9 4 5 - - 0.2
20/03:30am 0.6 -2.7 -1.0 89 0.6 N 6 7 3 4 - - 0.2
20/03:00am 0.5 -2.9 -0.6 92 0.4 NW 7 11 4 6 - - 0.2
20/02:30am 0.0 -2.2 -1.4 90 0.5 CALM 0 0 0 0 - - 0.2
20/02:00am 0.6 -2.3 -1.2 88 0.7 NNW 4 9 2 5 - - 0.2
20/01:30am 2.0 -0.5 -0.9 81 1.1 N 2 7 1 4 - - 0.2
20/01:00am 3.1 -0.3 -0.7 76 1.4 NNE 7 9 4 5 - - 0.2
20/12:30am 3.0 -0.2 -0.6 77 1.4 NE 6 9 3 5 - - 0.2
20/12:00am 3.3 0.1 -0.3 77 1.4 NNE 6 9 3 5 - - 0.2
 
Date/Time
EDT
Temp
°C
App
Temp
°C
Dew
Point
°C
Rel
Hum
%
Delta-T
°C
Wind Press
QNH
hPa
Press
MSL
hPa
Rain since
9am
mm
Dir  Spd
km/h
Gust
km/h
Spd
kts
Gust
kts
19/11:30pm 3.7 1.0 0.2 78 1.4 ENE 4 9 2 5 - - 0.2
19/11:00pm 3.7 0.6 0.1 77 1.4 ENE 6 9 3 5 - - 0.2
19/10:30pm 3.4 -0.4 -0.4 76 1.5 ENE 9 13 5 7 - - 0.2
19/10:00pm 3.8 0.4 -0.4 74 1.6 ENE 7 13 4 7 - - 0.2
19/09:30pm 4.1 0.4 -0.3 73 1.7 ENE 9 17 5 9 - - 0.2
19/09:00pm 4.6 0.9 0.0 72 1.8 ENE 9 15 5 8 - - 0.2
19/08:30pm 4.7 1.1 0.7 75 1.6 NE 9 13 5 7 - - 0.2
19/08:00pm 4.9 1.3 0.7 74 1.7 ENE 9 13 5 7 - - 0.2
19/07:30pm 5.5 1.9 0.9 72 1.9 ENE 9 15 5 8 - - 0.2
19/07:00pm 6.3 1.9 0.4 66 2.4 E 13 22 7 12 - - 0.2
19/06:30pm 7.0 2.7 0.7 64 2.6 E 13 19 7 10 - - 0.2
19/06:00pm 7.2 3.2 0.4 62 2.8 ESE 11 19 6 10 - - 0.0
19/05:30pm 7.4 3.9 1.0 64 2.6 ESE 9 17 5 9 - - 0.0
19/05:00pm 7.8 3.5 0.8 61 2.9 ESE 13 22 7 12 - - 0.0
19/04:30pm 8.7 4.9 1.8 62 2.9 E 11 20 6 11 - - 0.0
19/04:00pm 8.2 3.9 0.9 60 3.0 E 13 20 7 11 - - 0.0
19/03:30pm 8.9 4.3 1.6 60 3.1 E 15 22 8 12 - - 0.0
19/03:00pm 8.6 4.6 0.8 58 3.2 ENE 11 17 6 9 - - 0.0
19/02:30pm 8.4 4.0 0.4 57 3.3 NE 13 22 7 12 - - 0.0
19/02:00pm 8.7 4.7 0.7 57 3.3 ENE 11 19 6 10 - - 0.0
19/01:30pm 8.3 3.9 0.5 58 3.2 ENE 13 19 7 10 - - 0.0
19/01:00pm 8.6 5.2 2.0 63 2.8 ENE 9 15 5 8 - - 0.0
19/12:30pm 7.9 3.7 1.7 65 2.6 ENE 13 19 7 10 - - 0.0
19/12:00pm 6.9 2.7 1.4 68 2.3 E 13 19 7 10 - - 0.0
19/11:30am 6.4 1.7 1.1 69 2.2 ENE 15 22 8 12 - - 0.0
19/11:00am 6.1 1.9 1.4 72 1.9 ENE 13 20 7 11 - - 0.0
19/10:30am 6.1 1.5 1.4 72 1.9 NE 15 22 8 12 - - 0.0
19/10:00am 5.9 1.9 0.5 68 2.2 E 11 20 6 11 - - 0.0
19/09:30am 5.7 1.1 1.4 74 1.8 E 15 22 8 12 - - 0.0
19/09:00am 5.3 1.4 1.4 76 1.6 E 11 19 6 10 - - 4.6
19/08:30am 4.5 0.6 1.4 80 1.3 E 11 17 6 9 - - 4.6
19/08:00am 3.9 0.4 1.3 83 1.0 E 9 17 5 9 - - 4.6
19/07:30am 3.3 0.1 1.0 85 0.9 SE 7 13 4 7 - - 4.6
19/07:00am 3.1 -0.4 1.0 86 0.8 SE 9 13 5 7 - - 4.6
19/06:30am 2.8 -0.8 0.9 87 0.7 SE 9 17 5 9 - - 4.6
19/06:00am 3.0 -0.9 1.1 87 0.8 SE 11 19 6 10 - - 4.6
19/05:30am 3.1 -0.4 1.5 89 0.6 SSE 9 17 5 9 - - 4.6
19/05:00am 3.0 -0.4 1.8 92 0.5 SSE 9 15 5 8 - - 4.6
19/04:30am 2.9 -0.9 2.0 94 0.4 SSE 11 20 6 11 - - 4.6
19/04:00am 3.1 -0.6 2.1 93 0.4 SSE 11 22 6 12 - - 4.6
19/03:30am 3.2 -0.1 2.3 94 0.4 S 9 19 5 10 - - 4.6
19/03:00am 3.2 -0.9 2.3 94 0.4 SSE 13 20 7 11 - - 4.6
19/02:30am 3.3 -0.7 2.7 96 0.2 SSE 13 20 7 11 - - 4.6
19/02:00am 3.4 0.2 3.0 97 0.2 SSE 9 13 5 7 - - 4.6
19/01:30am 3.3 0.1 3.0 98 0.1 SSE 9 15 5 8 - - 4.6
19/01:00am 3.5 0.2 2.6 94 0.4 SE 9 17 5 9 - - 4.6
19/12:30am 3.8 0.6 2.8 93 0.4 SE 9 15 5 8 - - 4.6
19/12:00am 3.7 1.4 2.7 93 0.4 SE 4 9 2 5 - - 4.6
 
Date/Time
EDT
Temp
°C
App
Temp
°C
Dew
Point
°C
Rel
Hum
%
Delta-T
°C
Wind Press
QNH
hPa
Press
MSL
hPa
Rain since
9am
mm
Dir  Spd
km/h
Gust
km/h
Spd
kts
Gust
kts
18/11:30pm 3.7 0.8 2.5 92 0.5 SE 7 15 4 8 - - 4.6
18/11:00pm 3.7 0.5 3.0 95 0.3 SSE 9 15 5 8 - - 4.6
18/10:30pm 3.7 0.1 3.1 96 0.3 SSE 11 20 6 11 - - 4.6

Other formats

Comma delimited format used in spreadsheet applications
http://www.bom.gov.au/fwo/IDT60801/IDT60801.95962.axf

JavaScript Object Notation format (JSON) in row-major order
http://www.bom.gov.au/fwo/IDT60801/IDT60801.95962.json

Data quality

Most of these data are generated automatically and are frequently updated. Quality checks on data are not normally performed. It is possible for incorrect values to appear. Refer to information at About Latest Weather Observations and please check the disclaimer before using these data.